Time;durP1;ratioP1;P1;durP2;ratioP2;P2;SDS_P1;SDS_P2;PMS_P1;PMS_P2;Temp;Humidity;BMP_temperature;BMP_pressure;BME280_temperature;BME280_humidity;BME280_pressure;Samples;Min_cycle;Max_cycle;Signal;HPM_P1;HPM_P2
2021/05/24 00:01:10;;;;;;;;;;;;;;;10.58;94.39;98756.78;5035434;28;20174;-63
2021/05/24 00:03:35;;;;;;;;;;;;;;;10.48;94.51;98758.03;5053777;28;19912;-64
2021/05/24 00:06:00;;;;;;;;;;;;;;;10.41;94.93;98749.69;5055532;28;19940;-64
2021/05/24 00:08:26;;;;;;;;;;;;;;;10.37;95.66;98756.66;5035177;28;19981;-64
2021/05/24 00:10:51;;;;;;;;;;;;;;;10.46;94.77;98753.75;5052837;28;20355;-64
2021/05/24 00:13:17;;;;;;;;;;;;;;;10.46;95.70;98748.59;5050786;28;19923;-63
2021/05/24 00:15:44;;;;;;;;;;;;;;;10.49;96.06;98746.81;5053146;28;20008;-64
2021/05/24 00:18:10;;;;;;;;;;;;;;;10.47;95.82;98749.47;5053839;28;19913;-64
2021/05/24 00:20:39;;;;;;;;;;;;;;;10.36;96.48;98746.44;5052556;28;19939;-64
2021/05/24 00:23:05;;;;;;;;;;;;;;;10.26;96.51;98745.88;5032924;28;20289;-64
2021/05/24 00:25:30;;;;;;;;;;;;;;;10.35;97.78;98748.16;5054047;28;19912;-64
2021/05/24 00:27:56;;;;;;;;;;;;;;;10.49;98.01;98746.81;5057544;28;19958;-64
2021/05/24 00:30:22;;;;;;;;;;;;;;;10.40;96.50;98748.84;5051558;28;19925;-64
2021/05/24 00:32:47;;;;;;;;;;;;;;;10.20;98.37;98739.22;5054547;28;19927;-64
2021/05/24 00:35:13;;;;;;;;;;;;;;;10.26;98.04;98740.72;5057040;28;20378;-64
2021/05/24 00:37:38;;;;;;;;;;;;;;;10.39;98.32;98734.28;5037669;28;20381;-64
2021/05/24 00:40:05;;;;;;;;;;;;;;;10.20;98.92;98734.06;5054640;28;19924;-64
2021/05/24 00:42:30;;;;;;;;;;;;;;;10.21;99.77;98724.59;5033872;28;19917;-64
2021/05/24 00:44:56;;;;;;;;;;;;;;;10.17;100.00;98725.59;5035533;28;20404;-64
2021/05/24 00:47:21;;;;;;;;;;;;;;;10.15;100.00;98715.38;5055935;28;19924;-63
2021/05/24 00:49:46;;;;;;;;;;;;;;;10.19;100.00;98705.78;5057048;28;20420;-64
2021/05/24 00:52:12;;;;;;;;;;;;;;;10.30;100.00;98706.28;5058844;28;19966;-64
2021/05/24 00:54:38;;;;;;;;;;;;;;;10.24;100.00;98701.31;5057525;28;19913;-63
2021/05/24 00:57:03;;;;;;;;;;;;;;;10.37;100.00;98694.88;5040347;28;19912;-64
2021/05/24 00:59:28;;;;;;;;;;;;;;;10.20;100.00;98699.78;5038523;28;20216;-63
2021/05/24 01:01:54;;;;;;;;;;;;;;;10.36;100.00;98700.94;5042205;28;19956;-64
2021/05/24 01:04:19;;;;;;;;;;;;;;;10.29;100.00;98694.31;5056910;28;19916;-64
2021/05/24 01:06:46;;;;;;;;;;;;;;;10.23;100.00;98691.94;5057693;28;19923;-64
2021/05/24 01:09:11;;;;;;;;;;;;;;;10.24;100.00;98696.16;5057820;28;20084;-64
2021/05/24 01:11:36;;;;;;;;;;;;;;;10.19;100.00;98687.78;5053957;28;19959;-64
2021/05/24 01:14:02;;;;;;;;;;;;;;;10.25;100.00;98688.41;5055270;28;19990;-64
2021/05/24 01:16:27;;;;;;;;;;;;;;;10.19;100.00;98690.34;5037391;28;19917;-64
2021/05/24 01:18:52;;;;;;;;;;;;;;;10.34;100.00;98681.28;5054604;28;19916;-64
2021/05/24 01:21:18;;;;;;;;;;;;;;;10.27;100.00;98675.50;5055399;28;20384;-64
2021/05/24 01:23:44;;;;;;;;;;;;;;;10.12;100.00;98666.56;5060225;28;19923;-63
2021/05/24 01:26:09;;;;;;;;;;;;;;;10.24;100.00;98665.28;5056894;28;19999;-64
2021/05/24 01:28:35;;;;;;;;;;;;;;;10.28;100.00;98666.88;5058020;28;20294;-63
2021/05/24 01:31:01;;;;;;;;;;;;;;;10.31;100.00;98661.66;5055215;28;20386;-64
2021/05/24 01:33:26;;;;;;;;;;;;;;;10.18;100.00;98665.53;5057888;28;20393;-64
2021/05/24 01:35:51;;;;;;;;;;;;;;;10.28;100.00;98661.72;5055066;28;19913;-64
2021/05/24 01:38:17;;;;;;;;;;;;;;;10.27;100.00;98660.06;5054208;28;19916;-64
2021/05/24 01:40:43;;;;;;;;;;;;;;;10.31;100.00;98660.78;5056112;28;19920;-64
2021/05/24 01:43:08;;;;;;;;;;;;;;;10.25;100.00;98651.53;5055240;28;19913;-64
2021/05/24 01:45:33;;;;;;;;;;;;;;;10.30;100.00;98664.28;5057043;28;20004;-64
2021/05/24 01:47:59;;;;;;;;;;;;;;;10.22;100.00;98662.78;5031887;28;20321;-64
2021/05/24 01:50:24;;;;;;;;;;;;;;;10.22;100.00;98662.78;5056911;28;19988;-63
2021/05/24 01:52:50;;;;;;;;;;;;;;;10.26;100.00;98654.06;5056857;28;19952;-64
2021/05/24 01:55:15;;;;;;;;;;;;;;;10.25;100.00;98661.84;5035263;28;19990;-63
2021/05/24 01:57:41;;;;;;;;;;;;;;;10.19;100.00;98660.31;5058281;28;19939;-64
2021/05/24 02:00:16;;;;;;;;;;;;;;;10.19;100.00;98657.72;5034554;28;19920;-64
2021/05/24 02:02:42;;;;;;;;;;;;;;;10.10;100.00;98662.38;5059466;28;19940;-63
2021/05/24 02:05:08;;;;;;;;;;;;;;;10.14;100.00;98663.97;5033974;28;19970;-63
2021/05/24 02:07:33;;;;;;;;;;;;;;;10.02;100.00;98655.78;5055660;28;20488;-64
2021/05/24 02:09:59;;;;;;;;;;;;;;;10.09;100.00;98660.72;5040952;28;20412;-64
2021/05/24 02:12:24;;;;;;;;;;;;;;;10.18;100.00;98655.25;5053116;28;19919;-63
2021/05/24 02:14:52;;;;;;;;;;;;;;;10.29;100.00;98650.56;5055550;28;20003;-64
2021/05/24 02:17:18;;;;;;;;;;;;;;;10.14;100.00;98653.66;5059625;28;20200;-64
2021/05/24 02:19:46;;;;;;;;;;;;;;;10.10;100.00;98652.09;5042533;28;19916;-63
2021/05/24 02:22:11;;;;;;;;;;;;;;;10.14;100.00;98648.53;5058138;28;19913;-64
2021/05/24 02:24:37;;;;;;;;;;;;;;;10.01;100.00;98651.53;5050545;28;20366;-64
2021/05/24 02:27:02;;;;;;;;;;;;;;;9.95;100.00;98653.47;5056079;28;19912;-64
2021/05/24 02:29:28;;;;;;;;;;;;;;;10.05;100.00;98640.22;5034778;28;20322;-63
2021/05/24 02:31:53;;;;;;;;;;;;;;;10.07;100.00;98632.47;5058372;28;20128;-63
2021/05/24 02:34:18;;;;;;;;;;;;;;;9.98;100.00;98633.63;5037054;28;20278;-63
2021/05/24 02:36:44;;;;;;;;;;;;;;;10.07;100.00;98629.06;5055145;28;20412;-63
2021/05/24 02:39:09;;;;;;;;;;;;;;;10.09;100.00;98625.53;5056108;28;19912;-63
2021/05/24 02:41:35;;;;;;;;;;;;;;;10.03;100.00;98621.44;5062114;28;20455;-63
2021/05/24 02:44:00;;;;;;;;;;;;;;;9.96;100.00;98617.41;5053192;28;19913;-63
2021/05/24 02:46:26;;;;;;;;;;;;;;;10.02;100.00;98624.91;5055142;28;20377;-64
2021/05/24 02:48:51;;;;;;;;;;;;;;;10.08;100.00;98625.56;5059374;28;19912;-64
2021/05/24 02:51:16;;;;;;;;;;;;;;;10.09;100.00;98622.13;5054315;28;19962;-64
2021/05/24 02:53:42;;;;;;;;;;;;;;;10.17;100.00;98617.53;5058898;28;19999;-64
2021/05/24 02:56:07;;;;;;;;;;;;;;;10.13;100.00;98613.41;5035874;28;19916;-64
2021/05/24 02:58:32;;;;;;;;;;;;;;;10.07;100.00;98608.47;5054288;28;20007;-64
2021/05/24 03:00:58;;;;;;;;;;;;;;;10.07;100.00;98617.03;5056979;28;19925;-64
2021/05/24 03:03:24;;;;;;;;;;;;;;;10.17;100.00;98602.06;5058433;28;20367;-63
2021/05/24 03:05:49;;;;;;;;;;;;;;;10.10;100.00;98596.31;5054437;28;19912;-64
2021/05/24 03:08:15;;;;;;;;;;;;;;;10.16;100.00;98600.41;5058037;28;19913;-64
2021/05/24 03:10:41;;;;;;;;;;;;;;;10.23;100.00;98591.56;5039046;28;19940;-64
2021/05/24 03:13:06;;;;;;;;;;;;;;;10.14;100.00;98597.06;5059927;28;20346;-64
2021/05/24 03:15:31;;;;;;;;;;;;;;;10.08;100.00;98602.41;5056999;28;19974;-64
2021/05/24 03:17:57;;;;;;;;;;;;;;;10.19;100.00;98587.44;5058936;28;20328;-64
2021/05/24 03:20:22;;;;;;;;;;;;;;;10.26;100.00;98589.72;5037572;28;20390;-64
2021/05/24 03:22:48;;;;;;;;;;;;;;;10.27;100.00;98583.69;5037733;28;19917;-64
2021/05/24 03:25:14;;;;;;;;;;;;;;;10.17;100.00;98579.78;5035865;28;19912;-64
2021/05/24 03:27:39;;;;;;;;;;;;;;;10.09;100.00;98586.09;5033431;28;20051;-64
2021/05/24 03:30:05;;;;;;;;;;;;;;;9.98;100.00;98592.47;5054817;28;20006;-64
2021/05/24 03:32:31;;;;;;;;;;;;;;;10.02;100.00;98588.88;5055476;28;20369;-64
2021/05/24 03:34:56;;;;;;;;;;;;;;;9.98;100.00;98587.31;5037803;28;19917;-64
2021/05/24 03:37:21;;;;;;;;;;;;;;;9.95;100.00;98587.44;5057570;28;19916;-64
2021/05/24 03:39:47;;;;;;;;;;;;;;;10.19;100.00;98584.84;5032112;28;19924;-64
2021/05/24 03:42:12;;;;;;;;;;;;;;;10.09;100.00;98588.69;5039220;28;19943;-64
2021/05/24 03:44:42;;;;;;;;;;;;;;;10.10;100.00;98591.16;5059536;28;20282;-64
2021/05/24 03:47:07;;;;;;;;;;;;;;;10.09;100.00;98586.94;5054205;28;20016;-64
2021/05/24 03:49:32;;;;;;;;;;;;;;;10.09;100.00;98589.50;5055493;28;20417;-64
2021/05/24 03:51:58;;;;;;;;;;;;;;;10.04;100.00;98583.69;5038386;28;19924;-64
2021/05/24 03:54:23;;;;;;;;;;;;;;;10.08;100.00;98594.69;5054510;28;19952;-64
2021/05/24 03:56:48;;;;;;;;;;;;;;;10.18;100.00;98588.34;5053905;28;20283;-64
2021/05/24 03:59:14;;;;;;;;;;;;;;;10.11;100.00;98594.59;5053732;28;19923;-64
2021/05/24 04:01:40;;;;;;;;;;;;;;;10.27;100.00;98588.81;5052169;28;20392;-64
2021/05/24 04:04:05;;;;;;;;;;;;;;;10.06;100.00;98587.06;5054993;28;19913;-64
2021/05/24 04:06:31;;;;;;;;;;;;;;;10.24;100.00;98590.66;5037638;28;19920;-64
2021/05/24 04:08:56;;;;;;;;;;;;;;;10.30;100.00;98582.75;5053334;28;19913;-64
2021/05/24 04:11:22;;;;;;;;;;;;;;;10.16;100.00;98584.97;5054460;28;19960;-64
2021/05/24 04:13:51;;;;;;;;;;;;;;;10.37;100.00;98589.34;5056024;28;19913;-64
2021/05/24 04:16:17;;;;;;;;;;;;;;;10.52;100.00;98587.09;5038674;28;19913;-64
2021/05/24 04:18:47;;;;;;;;;;;;;;;10.51;100.00;98580.25;5034369;28;19970;-64
2021/05/24 04:21:13;;;;;;;;;;;;;;;10.41;100.00;98572.06;5035529;28;19916;-64
2021/05/24 04:23:38;;;;;;;;;;;;;;;10.48;100.00;98570.09;5053963;28;19927;-64
2021/05/24 04:26:04;;;;;;;;;;;;;;;10.39;100.00;98572.09;5058452;28;19923;-64
2021/05/24 04:28:29;;;;;;;;;;;;;;;10.65;100.00;98576.25;5055403;28;20262;-64
2021/05/24 04:30:55;;;;;;;;;;;;;;;10.66;100.00;98566.78;5056563;28;19935;-64
2021/05/24 04:33:20;;;;;;;;;;;;;;;10.75;100.00;98563.84;5059580;28;19913;-64
2021/05/24 04:35:45;;;;;;;;;;;;;;;10.87;100.00;98558.19;5057595;28;20325;-64
2021/05/24 04:38:11;;;;;;;;;;;;;;;10.86;100.00;98564.28;5061219;28;19962;-63
2021/05/24 04:40:36;;;;;;;;;;;;;;;11.04;100.00;98561.84;5054616;28;20003;-64
2021/05/24 04:43:01;;;;;;;;;;;;;;;10.99;100.00;98556.03;5058843;28;20297;-64
2021/05/24 04:45:27;;;;;;;;;;;;;;;11.04;100.00;98559.28;5040403;28;19913;-64
2021/05/24 04:47:52;;;;;;;;;;;;;;;11.09;100.00;98553.03;5058002;28;20400;-64
2021/05/24 04:50:18;;;;;;;;;;;;;;;11.09;100.00;98547.03;5043412;28;19922;-64
2021/05/24 04:52:43;;;;;;;;;;;;;;;11.10;100.00;98549.53;5057306;28;19992;-64
2021/05/24 04:55:09;;;;;;;;;;;;;;;11.35;100.00;98550.25;5056538;28;20336;-64
2021/05/24 04:57:34;;;;;;;;;;;;;;;11.37;100.00;98545.88;5056587;28;20293;-64
2021/05/24 05:00:00;;;;;;;;;;;;;;;11.38;100.00;98538.09;5040623;28;19924;-64
2021/05/24 05:02:27;;;;;;;;;;;;;;;11.46;100.00;98538.56;5062111;28;19917;-63
2021/05/24 05:04:52;;;;;;;;;;;;;;;11.56;100.00;98541.59;5057275;28;19942;-64
2021/05/24 05:07:17;;;;;;;;;;;;;;;11.53;100.00;98539.16;5057087;28;19920;-64
2021/05/24 05:09:43;;;;;;;;;;;;;;;11.77;100.00;98544.13;5058848;28;20011;-64
2021/05/24 05:12:08;;;;;;;;;;;;;;;11.78;100.00;98545.81;5057280;28;19998;-64
2021/05/24 05:14:33;;;;;;;;;;;;;;;11.81;100.00;98540.53;5046146;28;19923;-64
2021/05/24 05:17:00;;;;;;;;;;;;;;;11.89;100.00;98539.31;5056765;28;19920;-64
2021/05/24 05:19:25;;;;;;;;;;;;;;;11.95;100.00;98543.38;5057910;28;19996;-64
2021/05/24 05:21:50;;;;;;;;;;;;;;;12.10;100.00;98541.84;5019141;28;20012;-64
2021/05/24 05:24:16;;;;;;;;;;;;;;;12.29;100.00;98541.81;5039236;28;19924;-64
2021/05/24 05:26:42;;;;;;;;;;;;;;;12.27;98.97;98544.50;5056124;28;19917;-64
2021/05/24 05:29:07;;;;;;;;;;;;;;;12.27;98.13;98539.31;5055396;28;19920;-64
2021/05/24 05:31:32;;;;;;;;;;;;;;;12.34;98.04;98539.88;5053987;28;19920;-64
2021/05/24 05:33:57;;;;;;;;;;;;;;;12.50;98.20;98530.50;5056460;28;20320;-64
2021/05/24 05:36:25;;;;;;;;;;;;;;;12.48;97.21;98541.81;5060007;28;19952;-64
2021/05/24 05:38:50;;;;;;;;;;;;;;;12.72;95.08;98532.03;5057158;28;19913;-64
2021/05/24 05:41:15;;;;;;;;;;;;;;;12.88;94.06;98529.53;5056828;28;20042;-64
2021/05/24 05:43:41;;;;;;;;;;;;;;;12.94;93.17;98519.75;5038767;28;20385;-64
2021/05/24 05:46:06;;;;;;;;;;;;;;;13.21;92.01;98521.88;5055203;28;19913;-64
2021/05/24 05:48:31;;;;;;;;;;;;;;;13.16;90.78;98526.44;5056809;28;19964;-64
2021/05/24 05:50:57;;;;;;;;;;;;;;;13.22;90.66;98522.72;5057184;28;19966;-64
2021/05/24 05:53:22;;;;;;;;;;;;;;;13.43;88.71;98525.97;5053619;28;19999;-64
2021/05/24 05:55:47;;;;;;;;;;;;;;;13.48;89.21;98529.16;5058440;28;19916;-64
2021/05/24 05:58:13;;;;;;;;;;;;;;;13.45;88.10;98524.16;5060012;28;20336;-64
2021/05/24 06:00:38;;;;;;;;;;;;;;;13.74;86.67;98523.47;5057658;28;19921;-64
2021/05/24 06:03:04;;;;;;;;;;;;;;;13.74;87.21;98522.66;5038599;28;19916;-64
2021/05/24 06:05:29;;;;;;;;;;;;;;;13.96;88.03;98519.75;5055348;28;19913;-64
2021/05/24 06:07:54;;;;;;;;;;;;;;;14.14;85.79;98520.50;5057063;28;19939;-64
2021/05/24 06:10:20;;;;;;;;;;;;;;;14.45;82.02;98511.88;5057860;28;19920;-64
2021/05/24 06:12:47;;;;;;;;;;;;;;;14.14;83.32;98513.59;5057921;28;19916;-64
2021/05/24 06:15:15;;;;;;;;;;;;;;;14.60;80.60;98515.44;5051643;28;19917;-64
2021/05/24 06:17:41;;;;;;;;;;;;;;;14.49;81.60;98513.41;5054711;28;19913;-64
2021/05/24 06:20:06;;;;;;;;;;;;;;;15.01;79.70;98510.47;5059145;28;19988;-64
2021/05/24 06:22:32;;;;;;;;;;;;;;;15.12;77.20;98514.19;5059022;28;19924;-64
2021/05/24 06:24:57;;;;;;;;;;;;;;;15.26;77.43;98515.06;5034912;28;20133;-64
2021/05/24 06:27:22;;;;;;;;;;;;;;;15.61;75.59;98513.88;5056218;28;20775;-64
2021/05/24 06:29:48;;;;;;;;;;;;;;;15.77;74.34;98508.63;5057838;28;19917;-64
2021/05/24 06:32:13;;;;;;;;;;;;;;;15.29;76.45;98510.63;5054651;28;19928;-64
2021/05/24 06:34:38;;;;;;;;;;;;;;;15.69;74.67;98501.25;5055592;28;19912;-64
2021/05/24 06:37:04;;;;;;;;;;;;;;;15.91;73.67;98502.56;5054853;28;19920;-64
2021/05/24 06:39:29;;;;;;;;;;;;;;;16.38;73.95;98496.16;5018461;28;20293;-65
2021/05/24 06:41:55;;;;;;;;;;;;;;;16.23;72.19;98491.00;5057049;28;20209;-64
2021/05/24 06:44:20;;;;;;;;;;;;;;;15.83;71.67;98493.50;5054204;28;19917;-64
2021/05/24 06:46:47;;;;;;;;;;;;;;;15.93;73.39;98492.94;5055770;28;19924;-64
2021/05/24 06:49:13;;;;;;;;;;;;;;;16.53;72.15;98495.16;5038168;28;19913;-64
2021/05/24 06:51:38;;;;;;;;;;;;;;;16.42;69.00;98489.81;5056550;28;19939;-64
2021/05/24 06:54:03;;;;;;;;;;;;;;;16.48;68.34;98492.03;5062688;28;19912;-63
2021/05/24 06:56:29;;;;;;;;;;;;;;;16.45;68.64;98489.63;5038987;28;20378;-64
2021/05/24 06:58:54;;;;;;;;;;;;;;;16.64;66.75;98484.06;5054259;28;20344;-64
2021/05/24 07:01:20;;;;;;;;;;;;;;;16.57;70.62;98482.81;5054095;28;19917;-64
2021/05/24 07:03:45;;;;;;;;;;;;;;;16.69;67.34;98472.47;5055091;28;19917;-64
2021/05/24 07:06:10;;;;;;;;;;;;;;;16.78;64.17;98467.56;5055742;28;20424;-64
2021/05/24 07:08:37;;;;;;;;;;;;;;;16.73;68.54;98468.69;5054847;28;19913;-64
2021/05/24 07:11:02;;;;;;;;;;;;;;;16.78;66.26;98471.00;5057432;28;19923;-64
2021/05/24 07:13:28;;;;;;;;;;;;;;;17.26;66.59;98460.03;5054311;28;19920;-64
2021/05/24 07:15:53;;;;;;;;;;;;;;;17.59;64.85;98448.28;5053552;28;19913;-64
2021/05/24 07:18:19;;;;;;;;;;;;;;;17.52;62.35;98445.25;5053073;28;20312;-64
2021/05/24 07:20:45;;;;;;;;;;;;;;;17.65;63.66;98440.00;5053403;28;20294;-64
2021/05/24 07:23:10;;;;;;;;;;;;;;;17.51;62.58;98433.97;5055772;28;19913;-64
2021/05/24 07:25:36;;;;;;;;;;;;;;;17.89;60.64;98440.09;5037772;28;20478;-64
2021/05/24 07:28:01;;;;;;;;;;;;;;;18.26;60.97;98435.66;5057248;28;20278;-64
2021/05/24 07:30:26;;;;;;;;;;;;;;;18.17;60.37;98436.34;5049477;28;19925;-64
2021/05/24 07:32:52;;;;;;;;;;;;;;;18.49;59.92;98435.75;5054500;28;20193;-64
2021/05/24 07:35:17;;;;;;;;;;;;;;;18.76;56.41;98438.94;5052394;28;19917;-65
2021/05/24 07:37:43;;;;;;;;;;;;;;;18.79;55.50;98433.53;5052052;28;20416;-64
2021/05/24 07:40:09;;;;;;;;;;;;;;;19.29;57.27;98429.78;5031515;28;20055;-64
2021/05/24 07:42:34;;;;;;;;;;;;;;;18.92;54.30;98432.59;5058491;28;19970;-64
2021/05/24 07:45:00;;;;;;;;;;;;;;;19.40;56.09;98437.63;5058434;28;20385;-64
2021/05/24 07:47:25;;;;;;;;;;;;;;;19.75;56.95;98426.25;5061497;28;19919;-64
2021/05/24 07:49:50;;;;;;;;;;;;;;;19.64;51.59;98425.28;5056929;28;19913;-64
2021/05/24 07:52:16;;;;;;;;;;;;;;;19.66;52.29;98422.56;5056311;28;19949;-64
2021/05/24 07:54:41;;;;;;;;;;;;;;;19.06;51.08;98416.72;5035399;28;19967;-64
2021/05/24 07:57:06;;;;;;;;;;;;;;;19.57;52.96;98418.88;5058150;28;19913;-65
2021/05/24 07:59:32;;;;;;;;;;;;;;;19.56;50.43;98421.59;5060000;28;20024;-65
2021/05/24 08:02:00;;;;;;;;;;;;;;;20.16;54.76;98419.50;5038218;28;19970;-64
2021/05/24 08:04:25;;;;;;;;;;;;;;;19.16;49.24;98420.31;5045646;28;20447;-62
2021/05/24 08:06:50;;;;;;;;;;;;;;;20.22;52.15;98408.53;5047605;28;19912;-63
2021/05/24 08:09:16;;;;;;;;;;;;;;;19.17;50.50;98406.28;5037985;28;19913;-63
2021/05/24 08:11:41;;;;;;;;;;;;;;;19.67;52.95;98411.16;5062609;28;19969;-63
2021/05/24 08:14:07;;;;;;;;;;;;;;;19.91;50.17;98405.81;5056572;28;20334;-64
2021/05/24 08:16:32;;;;;;;;;;;;;;;20.23;47.36;98411.03;5057070;28;19924;-63
2021/05/24 08:18:58;;;;;;;;;;;;;;;19.73;47.63;98412.47;5039490;28;20267;-62
2021/05/24 08:21:23;;;;;;;;;;;;;;;20.04;52.70;98414.28;5059207;28;20263;-63
2021/05/24 08:23:48;;;;;;;;;;;;;;;19.21;44.95;98423.38;5058403;28;20015;-62
2021/05/24 08:26:14;;;;;;;;;;;;;;;19.80;48.60;98418.88;5064003;28;20337;-63
2021/05/24 08:28:39;;;;;;;;;;;;;;;20.01;45.83;98418.94;5056890;28;20384;-62
2021/05/24 08:31:05;;;;;;;;;;;;;;;19.87;47.70;98406.16;5050386;28;20007;-63
2021/05/24 08:33:30;;;;;;;;;;;;;;;19.96;53.22;98408.88;5027264;28;19913;-63
2021/05/24 08:35:56;;;;;;;;;;;;;;;19.51;50.53;98411.50;5027998;28;20027;-62
2021/05/24 08:38:22;;;;;;;;;;;;;;;19.67;48.04;98420.78;5031982;28;19916;-63
2021/05/24 08:40:47;;;;;;;;;;;;;;;19.20;51.64;98410.44;5030396;28;19925;-63
2021/05/24 08:43:14;;;;;;;;;;;;;;;20.14;51.32;98410.94;5026107;28;20418;-63
2021/05/24 08:45:40;;;;;;;;;;;;;;;20.37;45.89;98402.06;5033201;28;19913;-63
2021/05/24 08:48:06;;;;;;;;;;;;;;;20.22;45.27;98409.38;5021037;28;19967;-63
2021/05/24 08:50:31;;;;;;;;;;;;;;;20.39;47.08;98400.16;5035701;28;20379;-63
2021/05/24 08:52:56;;;;;;;;;;;;;;;20.08;46.76;98406.22;5037642;28;20055;-63
2021/05/24 08:55:23;;;;;;;;;;;;;;;20.10;44.15;98393.88;5027159;28;20030;-63
2021/05/24 08:57:48;;;;;;;;;;;;;;;20.84;46.81;98386.00;5017709;28;20485;-63
2021/05/24 09:00:15;;;;;;;;;;;;;;;21.04;46.29;98394.81;5033310;28;20004;-63
2021/05/24 09:02:40;;;;;;;;;;;;;;;21.43;44.81;98374.03;5037179;28;19913;-63
2021/05/24 09:05:07;;;;;;;;;;;;;;;21.19;42.47;98382.19;5042287;28;19921;-63
2021/05/24 09:07:46;;;;;;;;;;;;;;;21.60;43.10;98376.03;5024275;28;19913;-63
2021/05/24 09:10:11;;;;;;;;;;;;;;;21.65;42.26;98362.53;5035903;28;19912;-63
2021/05/24 09:12:36;;;;;;;;;;;;;;;21.29;40.28;98362.94;5033558;28;20472;-63
2021/05/24 09:15:08;;;;;;;;;;;;;;;21.22;41.57;98364.44;5029207;28;19925;-63
2021/05/24 09:17:55;;;;;;;;;;;;;;;21.20;42.81;98355.06;5038414;28;19913;-63
2021/05/24 09:20:20;;;;;;;;;;;;;;;21.24;39.14;98359.91;5036558;28;19917;-63
2021/05/24 09:22:52;;;;;;;;;;;;;;;21.13;37.66;98351.31;5039126;28;20327;-63
2021/05/24 09:25:18;;;;;;;;;;;;;;;20.71;38.12;98347.00;5017157;28;19967;-63
2021/05/24 09:27:43;;;;;;;;;;;;;;;21.44;44.56;98347.72;5030134;28;19944;-63
2021/05/24 09:30:09;;;;;;;;;;;;;;;21.78;39.85;98346.53;5016559;28;19956;-63
2021/05/24 09:32:36;;;;;;;;;;;;;;;21.01;39.66;98338.31;5056856;28;20339;-63
2021/05/24 09:35:03;;;;;;;;;;;;;;;20.99;43.15;98344.63;5057592;28;20297;-63
2021/05/24 09:37:32;;;;;;;;;;;;;;;21.68;41.61;98338.66;5055837;28;20374;-63
2021/05/24 09:39:58;;;;;;;;;;;;;;;22.22;49.68;98331.28;5044482;28;19917;-63
2021/05/24 09:42:23;;;;;;;;;;;;;;;21.53;45.33;98338.25;5054482;28;19919;-62
2021/05/24 09:44:55;;;;;;;;;;;;;;;22.11;39.96;98333.03;5039421;28;19923;-63
2021/05/24 09:47:36;;;;;;;;;;;;;;;22.36;42.53;98325.59;5040530;28;19916;-63
2021/05/24 09:50:06;;;;;;;;;;;;;;;23.02;40.45;98321.31;5038468;28;20562;-63
2021/05/24 09:52:35;;;;;;;;;;;;;;;22.10;41.42;98318.28;5035467;28;19917;-62
2021/05/24 09:55:12;;;;;;;;;;;;;;;21.80;41.46;98313.97;5056523;28;19921;-63
2021/05/24 09:57:49;;;;;;;;;;;;;;;21.92;40.58;98309.44;5057889;28;20400;-63
2021/05/24 10:00:17;;;;;;;;;;;;;;;21.74;41.52;98317.16;5036149;28;19924;-64
2021/05/24 10:02:46;;;;;;;;;;;;;;;22.13;38.75;98298.81;5037787;28;19913;-63
2021/05/24 10:05:11;;;;;;;;;;;;;;;22.78;41.51;98298.94;5057641;28;19939;-63
2021/05/24 10:07:37;;;;;;;;;;;;;;;23.32;36.82;98307.88;5057249;28;20348;-63
2021/05/24 10:10:02;;;;;;;;;;;;;;;21.63;39.19;98285.84;5057195;28;19918;-63
2021/05/24 10:12:27;;;;;;;;;;;;;;;21.92;42.95;98286.69;5039272;28;19916;-63
2021/05/24 10:14:55;;;;;;;;;;;;;;;22.07;40.82;98281.81;5036490;28;19951;-63
2021/05/24 10:17:21;;;;;;;;;;;;;;;22.48;35.46;98274.59;5038134;28;19952;-70
2021/05/24 10:19:46;;;;;;;;;;;;;;;22.70;36.14;98264.75;5052095;28;20421;-63
2021/05/24 10:22:11;;;;;;;;;;;;;;;23.35;36.67;98265.53;5033065;28;19944;-63
2021/05/24 10:24:37;;;;;;;;;;;;;;;23.67;36.41;98271.25;5054558;28;19917;-63
2021/05/24 10:27:02;;;;;;;;;;;;;;;23.54;36.11;98269.03;5056418;28;19917;-63
2021/05/24 10:29:29;;;;;;;;;;;;;;;22.90;36.50;98265.50;5039401;28;20132;-62
2021/05/24 10:31:54;;;;;;;;;;;;;;;22.93;44.86;98266.00;5037533;28;20063;-63
2021/05/24 10:34:21;;;;;;;;;;;;;;;23.46;39.59;98259.22;5059743;28;20003;-62
2021/05/24 10:36:47;;;;;;;;;;;;;;;23.65;38.19;98250.41;5059154;28;19920;-63
2021/05/24 10:39:19;;;;;;;;;;;;;;;23.92;36.45;98243.41;5039253;28;20305;-63
2021/05/24 10:41:45;;;;;;;;;;;;;;;24.67;36.48;98240.28;5052303;28;19917;-63
2021/05/24 10:44:11;;;;;;;;;;;;;;;22.98;34.34;98253.25;5038871;28;19912;-63
2021/05/24 10:46:37;;;;;;;;;;;;;;;23.42;36.99;98246.53;5058334;28;19918;-63
2021/05/24 10:49:15;;;;;;;;;;;;;;;24.41;34.36;98236.69;5058011;28;19920;-63
2021/05/24 10:51:46;;;;;;;;;;;;;;;24.67;38.43;98237.66;5057041;28;20427;-63
2021/05/24 10:54:21;;;;;;;;;;;;;;;24.17;37.90;98229.44;5058651;28;19912;-63
2021/05/24 10:56:58;;;;;;;;;;;;;;;24.51;35.78;98238.41;5055623;28;20370;-63
2021/05/24 10:59:43;;;;;;;;;;;;;;;23.78;45.33;98235.06;5056767;28;19923;-63
2021/05/24 11:02:09;;;;;;;;;;;;;;;23.62;38.50;98239.34;5057064;28;20663;-63
2021/05/24 11:04:46;;;;;;;;;;;;;;;24.38;44.78;98233.53;5054962;28;19971;-63
2021/05/24 11:07:32;;;;;;;;;;;;;;;24.01;39.04;98230.16;5054555;28;19913;-63
2021/05/24 11:10:13;;;;;;;;;;;;;;;25.29;39.66;98225.03;5055180;28;19927;-63
2021/05/24 11:12:38;;;;;;;;;;;;;;;24.06;35.90;98229.69;5054941;28;19916;-63
2021/05/24 11:15:14;;;;;;;;;;;;;;;23.48;35.29;98227.56;5055349;28;19989;-63
2021/05/24 11:17:57;;;;;;;;;;;;;;;22.98;36.51;98232.25;5056252;28;19972;-63
2021/05/24 11:20:35;;;;;;;;;;;;;;;23.74;36.70;98217.97;5033953;28;19925;-63
2021/05/24 11:25:59;;;;;;;;;;;;;;;23.52;46.36;98198.19;5052092;28;19946;-63
2021/05/24 11:28:32;;;;;;;;;;;;;;;23.49;36.52;98202.91;5036930;28;20317;-63
2021/05/24 11:31:07;;;;;;;;;;;;;;;23.57;38.55;98195.13;5056508;28;20066;-63
2021/05/24 11:33:36;;;;;;;;;;;;;;;23.55;47.14;98191.81;5035215;28;19920;-63
2021/05/24 11:36:03;;;;;;;;;;;;;;;23.45;36.59;98206.84;5053791;28;19935;-63
2021/05/24 11:38:29;;;;;;;;;;;;;;;23.26;45.27;98213.88;5037144;28;19992;-63
2021/05/24 11:41:13;;;;;;;;;;;;;;;23.99;40.16;98207.63;5055436;28;20026;-62
2021/05/24 11:43:40;;;;;;;;;;;;;;;23.24;37.87;98204.47;5054890;28;19977;-63
2021/05/24 11:46:07;;;;;;;;;;;;;;;23.59;35.05;98204.50;5053553;28;19919;-63
2021/05/24 11:48:39;;;;;;;;;;;;;;;23.53;37.17;98209.53;5034281;28;19913;-63
2021/05/24 11:51:06;;;;;;;;;;;;;;;22.62;35.60;98212.13;5052976;28;19921;-63
2021/05/24 11:53:32;;;;;;;;;;;;;;;23.42;41.79;98207.13;5034284;28;19920;-63
2021/05/24 11:56:10;;;;;;;;;;;;;;;22.48;39.07;98213.44;5031760;28;19921;-63
2021/05/24 11:58:54;;;;;;;;;;;;;;;22.67;42.49;98212.50;5032357;28;19923;-63
2021/05/24 12:01:20;;;;;;;;;;;;;;;22.28;37.05;98203.03;5052701;28;20015;-63
2021/05/24 12:03:46;;;;;;;;;;;;;;;21.66;36.76;98223.50;5056236;28;19999;-63
2021/05/24 12:06:11;;;;;;;;;;;;;;;21.72;39.12;98219.50;5048728;28;19920;-62
2021/05/24 12:08:40;;;;;;;;;;;;;;;20.92;40.16;98213.47;5058291;28;19913;-63
2021/05/24 12:11:08;;;;;;;;;;;;;;;21.53;43.65;98207.25;5037216;28;19912;-63
2021/05/24 12:13:52;;;;;;;;;;;;;;;22.21;44.95;98203.69;5052087;28;19920;-62
2021/05/24 12:16:18;;;;;;;;;;;;;;;20.36;44.46;98206.06;5060991;28;19978;-63
2021/05/24 12:18:50;;;;;;;;;;;;;;;19.86;41.52;98214.56;5048743;28;19948;-62
2021/05/24 12:21:29;;;;;;;;;;;;;;;20.82;44.63;98215.22;5048556;28;19920;-62
2021/05/24 12:23:57;;;;;;;;;;;;;;;21.22;45.81;98214.34;5014801;28;20355;-62
2021/05/24 12:26:22;;;;;;;;;;;;;;;21.23;41.88;98214.22;5048835;28;19920;-62
2021/05/24 12:28:48;;;;;;;;;;;;;;;20.75;43.86;98214.91;5057473;28;19913;-62
2021/05/24 12:31:13;;;;;;;;;;;;;;;21.58;49.31;98210.28;4991884;28;1514548;-62
2021/05/24 12:33:43;;;;;;;;;;;;;;;21.46;45.19;98212.19;5032839;28;19921;-62
2021/05/24 12:36:09;;;;;;;;;;;;;;;22.12;47.20;98207.97;5048957;28;19944;-63
2021/05/24 12:38:43;;;;;;;;;;;;;;;21.91;49.15;98222.09;5032936;28;19968;-62
2021/05/24 12:41:08;;;;;;;;;;;;;;;21.61;42.38;98224.88;4992810;28;19925;-62
2021/05/24 12:43:34;;;;;;;;;;;;;;;21.97;43.31;98228.59;5012634;28;19913;-63